Bookmark and Share
Track history (hours):
 

Thailine 5

Last reported at 2014-Apr-12 09:09 UTC. Time now 2014-Apr-24 09:36 UTC.
Position N 34°22' E 135°01'.
Warning: this ship's position is 12 days out of date.

; draft 5.5 m.

Type: Cargo ship. MMSI: 533399000.

NotesDate/timePositionNaut miles runAvg speedWind from/ knotsBaromVisibWave heightAir tempDewpointWater temp
2014-Apr-12 09:09N 34°22' E 135°01'811.3
2014-Apr-12 08:28N 34°27' E 135°09'1011.1
2014-Apr-12 07:33N 34°31' E 135°20'2 1.6
2014-Apr-12 06:12N 34°31' E 135°23'0 0.0
2014-Apr-12 05:12N 34°31' E 135°23'0 0.0
2014-Apr-12 04:30N 34°31' E 135°23'0 0.0
2014-Apr-12 03:18N 34°31' E 135°23'0 0.0
2014-Apr-12 02:12N 34°31' E 135°23'0 0.0
2014-Apr-12 01:24N 34°31' E 135°23'0 0.0
2014-Apr-12 00:24N 34°31' E 135°23'0 0.0
2014-Apr-11 23:30N 34°31' E 135°23'0 0.0
2014-Apr-11 22:30N 34°31' E 135°23'0 0.0
2014-Apr-11 21:30N 34°31' E 135°23'0 0.0
2014-Apr-11 20:30N 34°31' E 135°23'0 0.0
2014-Apr-11 19:30N 34°31' E 135°23'0 0.0
2014-Apr-11 18:30N 34°31' E 135°23'0 0.0
2014-Apr-11 17:24N 34°31' E 135°23'0 0.0
2014-Apr-11 16:24N 34°31' E 135°23'0 0.0
2014-Apr-11 15:30N 34°31' E 135°23'0 0.0
2014-Apr-11 14:24N 34°31' E 135°23'0 0.0
2014-Apr-11 13:30N 34°31' E 135°23'0 0.0
2014-Apr-11 12:30N 34°31' E 135°23'0 0.0
2014-Apr-11 11:30N 34°31' E 135°23'0 0.0
2014-Apr-11 10:18N 34°31' E 135°23'0 0.0
2014-Apr-11 09:30N 34°31' E 135°23'0 0.0
2014-Apr-11 08:30N 34°31' E 135°23'0 0.0
2014-Apr-11 07:30N 34°31' E 135°23'0 0.0
2014-Apr-11 06:06N 34°31' E 135°23'0 0.0
2014-Apr-11 05:30N 34°31' E 135°23'0 0.0
2014-Apr-11 04:18N 34°31' E 135°23'0 0.0
2014-Apr-11 03:30N 34°31' E 135°23'0 0.0
2014-Apr-11 02:12N 34°31' E 135°23'0 0.0
2014-Apr-11 01:30N 34°31' E 135°23'0 0.0
2014-Apr-11 00:30N 34°31' E 135°23'0 0.0
2014-Apr-10 23:30N 34°31' E 135°23'0 0.0
2014-Apr-10 22:30N 34°31' E 135°23'1 1.2
2014-Apr-10 21:29N 34°31' E 135°22'0 0.0
2014-Apr-10 20:29N 34°31' E 135°22'0 0.0
2014-Apr-10 18:11N 34°31' E 135°22'0 0.0
2014-Apr-10 17:29N 34°31' E 135°22'0 0.0
2014-Apr-10 16:17N 34°31' E 135°22'0 0.0
2014-Apr-10 15:29N 34°31' E 135°22'0 0.0
2014-Apr-10 14:29N 34°31' E 135°22'0 0.0
2014-Apr-10 13:11N 34°31' E 135°22'0 0.0
2014-Apr-10 12:29N 34°31' E 135°22'3 3.3
2014-Apr-10 11:33N 34°30' E 135°18'1010.4
2014-Apr-10 10:34N 34°25' E 135°08'19 9.6
2014-Apr-10 08:33N 34°07' E 134°59'230 9.6
2014-Apr-09 08:33N 35°00' E 139°31'1212.4
2014-Apr-09 07:33N 35°08' E 139°43'1111.2
2014-Apr-09 06:33N 35°19' E 139°43'5 4.7
2014-Apr-09 05:33N 35°22' E 139°39'0 0.0
2014-Apr-09 04:33N 35°22' E 139°39'0 0.0
2014-Apr-09 03:33N 35°22' E 139°39'0 0.0
2014-Apr-09 02:33N 35°22' E 139°39'0 0.0
2014-Apr-09 01:33N 35°22' E 139°39'0 0.0
2014-Apr-09 00:33N 35°22' E 139°39'0 0.0
2014-Apr-08 23:33N 35°22' E 139°39'0 0.0
2014-Apr-08 22:33N 35°22' E 139°39'0 0.0
2014-Apr-08 21:33N 35°22' E 139°39'0 0.0
2014-Apr-08 20:33N 35°22' E 139°39'0 0.0
2014-Apr-08 19:33N 35°22' E 139°39'0 0.0
2014-Apr-08 18:33N 35°22' E 139°39'0 0.0
2014-Apr-08 17:33N 35°22' E 139°39'0 0.0
2014-Apr-08 16:33N 35°22' E 139°39'0 0.0
2014-Apr-08 15:33N 35°22' E 139°39'0 0.0
2014-Apr-08 14:33N 35°22' E 139°39'0 0.0
2014-Apr-08 13:30N 35°22' E 139°39'0 0.0
2014-Apr-08 12:30N 35°22' E 139°39'0 0.0
2014-Apr-08 11:33N 35°22' E 139°39'0 0.0
2014-Apr-08 10:33N 35°22' E 139°39'0 0.0
2014-Apr-08 09:33N 35°22' E 139°39'0 0.0
2014-Apr-08 08:33N 35°22' E 139°39'0 0.0
2014-Apr-08 07:33N 35°22' E 139°39'0 0.0
2014-Apr-08 06:33N 35°22' E 139°39'0 0.0
2014-Apr-08 05:33N 35°22' E 139°39'0 0.0
2014-Apr-08 04:33N 35°22' E 139°39'0 0.0
2014-Apr-08 03:33N 35°22' E 139°39'0 0.0
2014-Apr-08 02:33N 35°22' E 139°39'0 0.0
2014-Apr-08 01:33N 35°22' E 139°39'0 0.0
2014-Apr-08 00:33N 35°22' E 139°39'0 0.0
2014-Apr-07 23:33N 35°22' E 139°39'0 0.1
2014-Apr-07 22:33N 35°23' E 139°39'4 3.8
2014-Apr-07 21:32N 35°23' E 139°44'0 0.0
2014-Apr-07 20:32N 35°23' E 139°44'0 0.0
2014-Apr-07 19:32N 35°23' E 139°44'0 0.0
2014-Apr-07 17:32N 35°23' E 139°44'0 0.0
2014-Apr-07 16:32N 35°23' E 139°44'0 0.1
2014-Apr-07 15:32N 35°23' E 139°44'0 0.1
2014-Apr-07 14:32N 35°23' E 139°44'0 0.1
2014-Apr-07 13:32N 35°23' E 139°44'0 0.0
2014-Apr-07 12:32N 35°23' E 139°44'0 0.0
2014-Apr-07 11:32N 35°23' E 139°44'0 0.0
2014-Apr-07 10:32N 35°23' E 139°44'0 0.0
2014-Apr-07 09:32N 35°23' E 139°44'0 0.0
2014-Apr-07 08:32N 35°23' E 139°44'0 0.0
2014-Apr-07 07:32N 35°23' E 139°44'0 0.0
2014-Apr-07 06:32N 35°23' E 139°44'0 0.0
2014-Apr-07 05:32N 35°23' E 139°44'0 0.0
2014-Apr-07 04:26N 35°23' E 139°44'0 0.0
2014-Apr-07 03:32N 35°23' E 139°44'0 0.1
2014-Apr-07 02:32N 35°23' E 139°44'0 0.1
2014-Apr-07 01:32N 35°23' E 139°44'0 0.0
2014-Apr-07 00:32N 35°23' E 139°44'0 0.0
2014-Apr-06 23:32N 35°23' E 139°44'0 0.0
2014-Apr-06 22:29N 35°23' E 139°44'0 0.0
2014-Apr-06 21:32N 35°23' E 139°44'0 0.0
2014-Apr-06 20:32N 35°23' E 139°44'0 0.0
2014-Apr-06 19:32N 35°23' E 139°44'0 0.0
2014-Apr-06 18:32N 35°23' E 139°44'0 0.0
2014-Apr-06 17:32N 35°23' E 139°44'0 0.0
2014-Apr-06 16:29N 35°23' E 139°44'0 0.0
2014-Apr-06 15:32N 35°23' E 139°44'0 0.0
2014-Apr-06 14:32N 35°23' E 139°44'0 0.0
2014-Apr-06 13:32N 35°23' E 139°44'0 0.0
2014-Apr-06 12:32N 35°23' E 139°44'0 0.0
2014-Apr-06 11:32N 35°23' E 139°44'0 0.0
2014-Apr-06 10:32N 35°23' E 139°44'0 0.0
2014-Apr-06 09:32N 35°23' E 139°44'0 0.1
2014-Apr-06 08:32N 35°23' E 139°44'0 0.1
2014-Apr-06 07:32N 35°23' E 139°44'0 0.1
2014-Apr-06 06:32N 35°23' E 139°44'0 0.1
2014-Apr-06 05:29N 35°23' E 139°44'0 0.1
2014-Apr-06 04:32N 35°23' E 139°44'0 0.1
2014-Apr-06 03:32N 35°23' E 139°44'0 0.0
2014-Apr-06 02:29N 35°23' E 139°44'0 0.0
2014-Apr-06 01:32N 35°23' E 139°44'0 0.1
2014-Apr-06 00:32N 35°23' E 139°44'0 0.0
2014-Apr-05 23:32N 35°23' E 139°44'0 0.0
2014-Apr-05 22:32N 35°23' E 139°44'0 0.0
2014-Apr-05 21:32N 35°23' E 139°44'0 0.0
2014-Apr-05 20:32N 35°23' E 139°44'0 0.0
2014-Apr-05 18:32N 35°23' E 139°44'0 0.0
2014-Apr-05 17:32N 35°23' E 139°44'0 0.0
2014-Apr-05 16:32N 35°23' E 139°44'0 0.0
2014-Apr-05 15:08N 35°23' E 139°44'0 0.0
2014-Apr-05 13:32N 35°23' E 139°44'0 0.0
2014-Apr-05 12:32N 35°23' E 139°44'0 0.0
2014-Apr-05 11:32N 35°23' E 139°44'0 0.0
2014-Apr-05 10:32N 35°23' E 139°44'0 0.0
2014-Apr-05 09:32N 35°23' E 139°44'0 0.0
2014-Apr-05 08:32N 35°23' E 139°44'0 0.1
2014-Apr-05 07:32N 35°23' E 139°44'0 0.1
2014-Apr-05 06:32N 35°23' E 139°44'0 0.0
2014-Apr-05 05:32N 35°23' E 139°44'0 0.0
2014-Apr-05 04:32N 35°23' E 139°44'0 0.0
2014-Apr-05 03:32N 35°23' E 139°44'0 0.0
2014-Apr-05 02:32N 35°23' E 139°44'0 0.0
2014-Apr-05 01:33N 35°23' E 139°44'0 0.0
2014-Apr-05 00:32N 35°23' E 139°44'0 0.1
2014-Apr-04 23:34N 35°23' E 139°44'0 0.0
2014-Apr-04 22:31N 35°23' E 139°44'0 0.1
2014-Apr-04 21:33N 35°23' E 139°44'0 0.0
2014-Apr-04 20:33N 35°23' E 139°44'0 0.0
2014-Apr-04 19:30N 35°23' E 139°44'0 0.0
2014-Apr-04 18:32N 35°23' E 139°44'0 0.1
2014-Apr-04 17:33N 35°23' E 139°44'0 0.0
2014-Apr-04 16:33N 35°23' E 139°44'0 0.1
2014-Apr-04 15:34N 35°23' E 139°44'0 0.0
2014-Apr-04 14:33N 35°23' E 139°44'0 0.0
2014-Apr-04 13:30N 35°23' E 139°44'0 0.0
2014-Apr-04 12:32N 35°23' E 139°44'0 0.1
2014-Apr-04 11:33N 35°23' E 139°44'0 0.1
2014-Apr-04 10:33N 35°23' E 139°44'0 0.0
2014-Apr-04 09:32N 35°23' E 139°44'0 0.0
2014-Apr-04 08:33N 35°23' E 139°44'3 3.3
2014-Apr-04 07:33N 35°23' E 139°40'0 0.1
2014-Apr-04 06:31N 35°23' E 139°40'0 0.1
2014-Apr-04 05:32N 35°23' E 139°40'0 0.0
2014-Apr-04 04:33N 35°23' E 139°40'0 0.0
2014-Apr-04 03:33N 35°23' E 139°40'0 0.0
2014-Apr-04 02:33N 35°23' E 139°40'0 0.0
2014-Apr-04 01:33N 35°23' E 139°40'0 0.2
2014-Apr-04 00:33N 35°23' E 139°40'0 0.1
2014-Apr-03 23:33N 35°23' E 139°40'0 0.1
2014-Apr-03 22:33N 35°23' E 139°40'0 0.1
2014-Apr-03 21:33N 35°23' E 139°40'0 0.0
2014-Apr-03 20:33N 35°23' E 139°40'0 0.1
2014-Apr-03 19:33N 35°23' E 139°40'0 0.1
2014-Apr-03 18:33N 35°23' E 139°40'0 0.0
2014-Apr-03 17:33N 35°23' E 139°40'0 0.0
2014-Apr-03 16:33N 35°23' E 139°40'0 0.0
2014-Apr-03 15:33N 35°23' E 139°40'0 0.0
2014-Apr-03 14:33N 35°23' E 139°40'0 0.0
2014-Apr-03 13:33N 35°23' E 139°40'0 0.0
2014-Apr-03 12:33N 35°23' E 139°40'0 0.0
2014-Apr-03 11:33N 35°23' E 139°40'0 0.0
2014-Apr-03 10:33N 35°23' E 139°40'0 0.1
2014-Apr-03 09:33N 35°23' E 139°40'0 0.0
2014-Apr-03 08:33N 35°23' E 139°40'0 0.0
2014-Apr-03 07:33N 35°23' E 139°40'0 0.0
2014-Apr-03 06:33N 35°23' E 139°40'0 0.0
2014-Apr-03 05:33N 35°23' E 139°40'0 0.1
2014-Apr-03 04:33N 35°23' E 139°40'0 0.0
2014-Apr-03 03:33N 35°23' E 139°40'0 0.0
2014-Apr-03 02:30N 35°23' E 139°40'0 0.0
2014-Apr-03 01:33N 35°23' E 139°40'0 0.0
2014-Apr-03 00:33N 35°23' E 139°40'0 0.0
2014-Apr-02 23:33N 35°23' E 139°40'0 0.0
2014-Apr-02 22:33N 35°23' E 139°40'0 0.0
2014-Apr-02 21:33N 35°23' E 139°40'0 0.0
2014-Apr-02 20:33N 35°23' E 139°40'0 0.1
2014-Apr-02 19:33N 35°23' E 139°40'0 0.0
2014-Apr-02 18:33N 35°23' E 139°40'0 0.0
2014-Apr-02 17:33N 35°23' E 139°40'0 0.1
2014-Apr-02 16:33N 35°23' E 139°40'0 0.0
2014-Apr-02 15:33N 35°23' E 139°40'0 0.0
2014-Apr-02 14:33N 35°23' E 139°40'0 0.0
2014-Apr-02 13:33N 35°23' E 139°40'0 0.0
2014-Apr-02 12:33N 35°23' E 139°40'0 0.0
2014-Apr-02 11:33N 35°23' E 139°40'0 0.0
2014-Apr-02 10:30N 35°23' E 139°40'2 2.6
2014-Apr-02 09:33N 35°24' E 139°42'  

Dump ship's entire track history

sailing weather and tide predictions

Thailine 5 — 9WFF5 — position and weather